sensor_id;sensor_type;location;lat;lon;timestamp;P1;durP1;ratioP1;P2;durP2;ratioP2
10540;SDS011;5318;50.844;4.272;2022-07-22T00:00:16;3.40;;;3.40;;
10540;SDS011;5318;50.844;4.272;2022-07-22T00:02:42;3.60;;;3.50;;
10540;SDS011;5318;50.844;4.272;2022-07-22T00:05:09;3.33;;;3.33;;
10540;SDS011;5318;50.844;4.272;2022-07-22T00:07:35;3.43;;;3.43;;
10540;SDS011;5318;50.844;4.272;2022-07-22T00:10:02;2.97;;;2.97;;
10540;SDS011;5318;50.844;4.272;2022-07-22T00:12:29;4.23;;;4.13;;
10540;SDS011;5318;50.844;4.272;2022-07-22T00:14:55;3.40;;;3.33;;
10540;SDS011;5318;50.844;4.272;2022-07-22T00:17:22;3.00;;;3.00;;
10540;SDS011;5318;50.844;4.272;2022-07-22T00:19:49;3.03;;;3.03;;
10540;SDS011;5318;50.844;4.272;2022-07-22T00:22:15;3.37;;;3.37;;
10540;SDS011;5318;50.844;4.272;2022-07-22T00:24:42;3.33;;;3.33;;
10540;SDS011;5318;50.844;4.272;2022-07-22T00:27:09;3.80;;;3.70;;
10540;SDS011;5318;50.844;4.272;2022-07-22T00:29:35;2.87;;;2.87;;
10540;SDS011;5318;50.844;4.272;2022-07-22T00:32:02;3.23;;;3.23;;
10540;SDS011;5318;50.844;4.272;2022-07-22T00:34:29;3.28;;;3.28;;
10540;SDS011;5318;50.844;4.272;2022-07-22T00:36:55;3.13;;;3.03;;
10540;SDS011;5318;50.844;4.272;2022-07-22T00:39:22;3.20;;;3.20;;
10540;SDS011;5318;50.844;4.272;2022-07-22T00:41:49;3.13;;;3.13;;
10540;SDS011;5318;50.844;4.272;2022-07-22T00:44:15;3.30;;;3.23;;
10540;SDS011;5318;50.844;4.272;2022-07-22T00:46:42;3.37;;;3.37;;
10540;SDS011;5318;50.844;4.272;2022-07-22T00:49:09;3.87;;;3.87;;
10540;SDS011;5318;50.844;4.272;2022-07-22T00:51:35;3.70;;;3.70;;
10540;SDS011;5318;50.844;4.272;2022-07-22T00:54:02;3.30;;;3.30;;
10540;SDS011;5318;50.844;4.272;2022-07-22T00:59:25;3.53;;;3.53;;
10540;SDS011;5318;50.844;4.272;2022-07-22T01:02:01;3.27;;;3.27;;
10540;SDS011;5318;50.844;4.272;2022-07-22T01:04:39;3.33;;;3.23;;
10540;SDS011;5318;50.844;4.272;2022-07-22T01:07:14;3.60;;;3.60;;
10540;SDS011;5318;50.844;4.272;2022-07-22T01:09:51;3.37;;;3.37;;
10540;SDS011;5318;50.844;4.272;2022-07-22T01:12:28;3.93;;;3.93;;
10540;SDS011;5318;50.844;4.272;2022-07-22T01:15:04;4.40;;;4.37;;
10540;SDS011;5318;50.844;4.272;2022-07-22T01:17:41;3.87;;;3.87;;
10540;SDS011;5318;50.844;4.272;2022-07-22T01:20:18;3.83;;;3.83;;
10540;SDS011;5318;50.844;4.272;2022-07-22T01:22:54;4.00;;;3.90;;
10540;SDS011;5318;50.844;4.272;2022-07-22T01:25:31;4.10;;;4.00;;
10540;SDS011;5318;50.844;4.272;2022-07-22T01:28:07;3.87;;;3.77;;
10540;SDS011;5318;50.844;4.272;2022-07-22T01:30:44;3.73;;;3.73;;
10540;SDS011;5318;50.844;4.272;2022-07-22T01:33:21;3.90;;;3.87;;
10540;SDS011;5318;50.844;4.272;2022-07-22T01:35:57;4.07;;;4.07;;
10540;SDS011;5318;50.844;4.272;2022-07-22T01:38:34;4.35;;;4.32;;
10540;SDS011;5318;50.844;4.272;2022-07-22T01:41:10;4.55;;;4.45;;
10540;SDS011;5318;50.844;4.272;2022-07-22T01:43:47;4.80;;;4.80;;
10540;SDS011;5318;50.844;4.272;2022-07-22T01:46:23;3.87;;;3.87;;
10540;SDS011;5318;50.844;4.272;2022-07-22T01:49:00;3.60;;;3.60;;
10540;SDS011;5318;50.844;4.272;2022-07-22T01:51:37;3.80;;;3.80;;
10540;SDS011;5318;50.844;4.272;2022-07-22T01:54:14;4.20;;;4.10;;
10540;SDS011;5318;50.844;4.272;2022-07-22T01:56:50;3.63;;;3.63;;
10540;SDS011;5318;50.844;4.272;2022-07-22T01:59:27;3.70;;;3.70;;
10540;SDS011;5318;50.844;4.272;2022-07-22T02:02:04;4.30;;;4.30;;
10540;SDS011;5318;50.844;4.272;2022-07-22T02:04:40;4.43;;;4.43;;
10540;SDS011;5318;50.844;4.272;2022-07-22T02:07:17;3.57;;;3.57;;
10540;SDS011;5318;50.844;4.272;2022-07-22T02:09:53;3.93;;;3.93;;
10540;SDS011;5318;50.844;4.272;2022-07-22T02:12:30;3.53;;;3.47;;
10540;SDS011;5318;50.844;4.272;2022-07-22T02:15:07;4.10;;;4.00;;
10540;SDS011;5318;50.844;4.272;2022-07-22T02:17:44;3.67;;;3.67;;
10540;SDS011;5318;50.844;4.272;2022-07-22T02:20:21;4.17;;;4.17;;
10540;SDS011;5318;50.844;4.272;2022-07-22T02:22:57;3.73;;;3.73;;
10540;SDS011;5318;50.844;4.272;2022-07-22T02:25:34;3.70;;;3.60;;
10540;SDS011;5318;50.844;4.272;2022-07-22T02:28:10;3.97;;;3.97;;
10540;SDS011;5318;50.844;4.272;2022-07-22T02:30:47;3.47;;;3.47;;
10540;SDS011;5318;50.844;4.272;2022-07-22T02:33:23;3.47;;;3.47;;
10540;SDS011;5318;50.844;4.272;2022-07-22T02:36:00;3.80;;;3.80;;
10540;SDS011;5318;50.844;4.272;2022-07-22T02:38:37;3.90;;;3.90;;
10540;SDS011;5318;50.844;4.272;2022-07-22T02:41:13;4.00;;;3.93;;
10540;SDS011;5318;50.844;4.272;2022-07-22T02:43:50;3.57;;;3.57;;
10540;SDS011;5318;50.844;4.272;2022-07-22T02:46:27;4.20;;;4.10;;
10540;SDS011;5318;50.844;4.272;2022-07-22T02:49:03;4.03;;;4.03;;
10540;SDS011;5318;50.844;4.272;2022-07-22T02:51:39;3.93;;;3.93;;
10540;SDS011;5318;50.844;4.272;2022-07-22T02:54:17;3.53;;;3.53;;
10540;SDS011;5318;50.844;4.272;2022-07-22T02:56:53;4.10;;;4.10;;
10540;SDS011;5318;50.844;4.272;2022-07-22T02:59:30;4.50;;;4.50;;
10540;SDS011;5318;50.844;4.272;2022-07-22T03:02:06;3.87;;;3.87;;
10540;SDS011;5318;50.844;4.272;2022-07-22T03:04:43;4.30;;;4.30;;
10540;SDS011;5318;50.844;4.272;2022-07-22T03:07:20;4.30;;;4.30;;
10540;SDS011;5318;50.844;4.272;2022-07-22T03:09:56;4.90;;;4.80;;
10540;SDS011;5318;50.844;4.272;2022-07-22T03:12:33;3.90;;;3.87;;
10540;SDS011;5318;50.844;4.272;2022-07-22T03:15:10;3.80;;;3.80;;
10540;SDS011;5318;50.844;4.272;2022-07-22T03:17:47;3.83;;;3.83;;
10540;SDS011;5318;50.844;4.272;2022-07-22T03:20:23;4.00;;;3.90;;
10540;SDS011;5318;50.844;4.272;2022-07-22T03:23:00;4.53;;;4.53;;
10540;SDS011;5318;50.844;4.272;2022-07-22T03:25:36;4.70;;;4.60;;
10540;SDS011;5318;50.844;4.272;2022-07-22T03:28:13;4.63;;;4.63;;
10540;SDS011;5318;50.844;4.272;2022-07-22T03:30:50;3.70;;;3.70;;
10540;SDS011;5318;50.844;4.272;2022-07-22T03:33:26;3.90;;;3.90;;
10540;SDS011;5318;50.844;4.272;2022-07-22T03:36:03;4.77;;;4.67;;
10540;SDS011;5318;50.844;4.272;2022-07-22T03:38:39;4.33;;;4.33;;
10540;SDS011;5318;50.844;4.272;2022-07-22T03:41:17;3.87;;;3.83;;
10540;SDS011;5318;50.844;4.272;2022-07-22T03:43:53;4.20;;;4.20;;
10540;SDS011;5318;50.844;4.272;2022-07-22T03:46:30;3.70;;;3.70;;
10540;SDS011;5318;50.844;4.272;2022-07-22T03:49:06;4.97;;;4.87;;
10540;SDS011;5318;50.844;4.272;2022-07-22T03:51:43;4.93;;;4.83;;
10540;SDS011;5318;50.844;4.272;2022-07-22T03:54:20;4.47;;;4.47;;
10540;SDS011;5318;50.844;4.272;2022-07-22T03:56:56;3.80;;;3.80;;
10540;SDS011;5318;50.844;4.272;2022-07-22T03:59:33;3.87;;;3.87;;
10540;SDS011;5318;50.844;4.272;2022-07-22T04:02:09;4.03;;;4.03;;
10540;SDS011;5318;50.844;4.272;2022-07-22T04:04:47;4.50;;;4.40;;
10540;SDS011;5318;50.844;4.272;2022-07-22T04:07:23;4.40;;;4.40;;
10540;SDS011;5318;50.844;4.272;2022-07-22T04:10:00;4.10;;;4.10;;
10540;SDS011;5318;50.844;4.272;2022-07-22T04:15:33;3.90;;;3.90;;
10540;SDS011;5318;50.844;4.272;2022-07-22T04:18:11;4.07;;;4.07;;
10540;SDS011;5318;50.844;4.272;2022-07-22T04:20:47;4.30;;;4.30;;
10540;SDS011;5318;50.844;4.272;2022-07-22T04:23:24;3.87;;;3.87;;
10540;SDS011;5318;50.844;4.272;2022-07-22T04:26:00;6.10;;;6.00;;
10540;SDS011;5318;50.844;4.272;2022-07-22T04:28:37;4.37;;;4.37;;
10540;SDS011;5318;50.844;4.272;2022-07-22T04:31:14;4.30;;;4.30;;
10540;SDS011;5318;50.844;4.272;2022-07-22T04:33:50;5.03;;;4.93;;
10540;SDS011;5318;50.844;4.272;2022-07-22T04:36:27;3.77;;;3.77;;
10540;SDS011;5318;50.844;4.272;2022-07-22T04:39:03;4.93;;;4.83;;
10540;SDS011;5318;50.844;4.272;2022-07-22T04:41:41;3.80;;;3.80;;
10540;SDS011;5318;50.844;4.272;2022-07-22T04:44:17;3.83;;;3.83;;
10540;SDS011;5318;50.844;4.272;2022-07-22T04:46:54;4.10;;;4.10;;
10540;SDS011;5318;50.844;4.272;2022-07-22T04:49:30;4.13;;;4.13;;
10540;SDS011;5318;50.844;4.272;2022-07-22T04:52:08;4.95;;;4.87;;
10540;SDS011;5318;50.844;4.272;2022-07-22T04:54:44;4.00;;;4.00;;
10540;SDS011;5318;50.844;4.272;2022-07-22T04:57:20;4.30;;;4.30;;
10540;SDS011;5318;50.844;4.272;2022-07-22T04:59:57;4.40;;;4.30;;
10540;SDS011;5318;50.844;4.272;2022-07-22T05:02:34;5.05;;;5.00;;
10540;SDS011;5318;50.844;4.272;2022-07-22T05:05:11;4.47;;;4.37;;
10540;SDS011;5318;50.844;4.272;2022-07-22T05:07:47;3.80;;;3.80;;
10540;SDS011;5318;50.844;4.272;2022-07-22T05:10:24;4.07;;;4.07;;
10540;SDS011;5318;50.844;4.272;2022-07-22T05:13:00;4.57;;;4.57;;
10540;SDS011;5318;50.844;4.272;2022-07-22T05:15:37;4.47;;;4.47;;
10540;SDS011;5318;50.844;4.272;2022-07-22T05:18:14;5.05;;;4.97;;
10540;SDS011;5318;50.844;4.272;2022-07-22T05:20:50;4.20;;;4.20;;
10540;SDS011;5318;50.844;4.272;2022-07-22T05:23:27;4.53;;;4.43;;
10540;SDS011;5318;50.844;4.272;2022-07-22T05:26:06;4.17;;;4.17;;
10540;SDS011;5318;50.844;4.272;2022-07-22T05:28:43;4.17;;;4.10;;
10540;SDS011;5318;50.844;4.272;2022-07-22T05:31:20;3.80;;;3.80;;
10540;SDS011;5318;50.844;4.272;2022-07-22T05:33:56;3.97;;;3.97;;
10540;SDS011;5318;50.844;4.272;2022-07-22T05:36:34;3.93;;;3.93;;
10540;SDS011;5318;50.844;4.272;2022-07-22T05:39:10;3.93;;;3.93;;
10540;SDS011;5318;50.844;4.272;2022-07-22T05:41:48;4.43;;;4.43;;
10540;SDS011;5318;50.844;4.272;2022-07-22T05:44:24;3.93;;;3.93;;
10540;SDS011;5318;50.844;4.272;2022-07-22T05:47:01;4.80;;;4.80;;
10540;SDS011;5318;50.844;4.272;2022-07-22T05:49:37;4.50;;;4.50;;
10540;SDS011;5318;50.844;4.272;2022-07-22T05:52:14;4.50;;;4.50;;
10540;SDS011;5318;50.844;4.272;2022-07-22T05:54:51;5.55;;;5.55;;
10540;SDS011;5318;50.844;4.272;2022-07-22T05:57:27;5.35;;;5.28;;
10540;SDS011;5318;50.844;4.272;2022-07-22T06:00:04;4.93;;;4.93;;
10540;SDS011;5318;50.844;4.272;2022-07-22T06:02:40;4.70;;;4.70;;
10540;SDS011;5318;50.844;4.272;2022-07-22T06:05:17;4.53;;;4.53;;
10540;SDS011;5318;50.844;4.272;2022-07-22T06:07:54;5.03;;;5.00;;
10540;SDS011;5318;50.844;4.272;2022-07-22T06:10:30;5.00;;;5.00;;
10540;SDS011;5318;50.844;4.272;2022-07-22T06:13:07;5.18;;;5.18;;
10540;SDS011;5318;50.844;4.272;2022-07-22T06:15:43;4.67;;;4.67;;
10540;SDS011;5318;50.844;4.272;2022-07-22T06:18:21;4.27;;;4.27;;
10540;SDS011;5318;50.844;4.272;2022-07-22T06:20:57;3.83;;;3.83;;
10540;SDS011;5318;50.844;4.272;2022-07-22T06:23:34;3.70;;;3.70;;
10540;SDS011;5318;50.844;4.272;2022-07-22T06:26:10;4.03;;;4.03;;
10540;SDS011;5318;50.844;4.272;2022-07-22T06:28:47;4.20;;;4.20;;
10540;SDS011;5318;50.844;4.272;2022-07-22T06:31:24;3.70;;;3.70;;
10540;SDS011;5318;50.844;4.272;2022-07-22T06:34:00;4.00;;;4.00;;
10540;SDS011;5318;50.844;4.272;2022-07-22T06:36:37;3.23;;;3.23;;
10540;SDS011;5318;50.844;4.272;2022-07-22T06:39:14;3.97;;;3.97;;
10540;SDS011;5318;50.844;4.272;2022-07-22T06:41:51;3.57;;;3.57;;
10540;SDS011;5318;50.844;4.272;2022-07-22T06:44:27;3.63;;;3.63;;
10540;SDS011;5318;50.844;4.272;2022-07-22T06:47:04;4.00;;;4.00;;
10540;SDS011;5318;50.844;4.272;2022-07-22T06:49:40;4.10;;;4.10;;
10540;SDS011;5318;50.844;4.272;2022-07-22T06:52:17;4.10;;;4.10;;
10540;SDS011;5318;50.844;4.272;2022-07-22T06:54:54;3.73;;;3.73;;
10540;SDS011;5318;50.844;4.272;2022-07-22T06:57:31;3.80;;;3.80;;
10540;SDS011;5318;50.844;4.272;2022-07-22T07:00:07;3.83;;;3.83;;
10540;SDS011;5318;50.844;4.272;2022-07-22T07:02:44;3.50;;;3.50;;
10540;SDS011;5318;50.844;4.272;2022-07-22T07:05:22;3.87;;;3.87;;
10540;SDS011;5318;50.844;4.272;2022-07-22T07:07:58;3.87;;;3.87;;
10540;SDS011;5318;50.844;4.272;2022-07-22T07:10:35;4.43;;;4.43;;
10540;SDS011;5318;50.844;4.272;2022-07-22T07:13:11;4.83;;;4.73;;
10540;SDS011;5318;50.844;4.272;2022-07-22T07:15:48;4.30;;;4.30;;
10540;SDS011;5318;50.844;4.272;2022-07-22T07:18:24;4.70;;;4.70;;
10540;SDS011;5318;50.844;4.272;2022-07-22T07:21:02;4.30;;;4.30;;
10540;SDS011;5318;50.844;4.272;2022-07-22T07:23:38;4.77;;;4.77;;
10540;SDS011;5318;50.844;4.272;2022-07-22T07:26:14;4.73;;;4.73;;
10540;SDS011;5318;50.844;4.272;2022-07-22T07:28:52;4.07;;;4.07;;
10540;SDS011;5318;50.844;4.272;2022-07-22T07:31:28;4.05;;;4.05;;
10540;SDS011;5318;50.844;4.272;2022-07-22T07:34:05;3.33;;;3.33;;
10540;SDS011;5318;50.844;4.272;2022-07-22T07:36:41;3.40;;;3.40;;
10540;SDS011;5318;50.844;4.272;2022-07-22T07:39:18;3.53;;;3.53;;
10540;SDS011;5318;50.844;4.272;2022-07-22T07:41:54;3.97;;;3.97;;
10540;SDS011;5318;50.844;4.272;2022-07-22T07:44:31;3.23;;;3.23;;
10540;SDS011;5318;50.844;4.272;2022-07-22T07:47:08;3.47;;;3.47;;
10540;SDS011;5318;50.844;4.272;2022-07-22T07:49:45;3.07;;;3.07;;
10540;SDS011;5318;50.844;4.272;2022-07-22T07:52:21;3.97;;;3.97;;
10540;SDS011;5318;50.844;4.272;2022-07-22T07:54:58;3.27;;;3.27;;
10540;SDS011;5318;50.844;4.272;2022-07-22T07:57:35;3.58;;;3.58;;
10540;SDS011;5318;50.844;4.272;2022-07-22T08:00:11;3.58;;;3.58;;
10540;SDS011;5318;50.844;4.272;2022-07-22T08:02:48;3.83;;;3.83;;
10540;SDS011;5318;50.844;4.272;2022-07-22T08:05:25;3.20;;;3.20;;
10540;SDS011;5318;50.844;4.272;2022-07-22T08:08:02;3.10;;;3.10;;
10540;SDS011;5318;50.844;4.272;2022-07-22T08:10:38;3.30;;;3.30;;
10540;SDS011;5318;50.844;4.272;2022-07-22T08:13:15;3.30;;;3.30;;
10540;SDS011;5318;50.844;4.272;2022-07-22T08:15:52;3.30;;;3.30;;
10540;SDS011;5318;50.844;4.272;2022-07-22T08:18:28;3.20;;;3.20;;
10540;SDS011;5318;50.844;4.272;2022-07-22T08:21:05;3.42;;;3.42;;
10540;SDS011;5318;50.844;4.272;2022-07-22T08:23:41;3.62;;;3.62;;
10540;SDS011;5318;50.844;4.272;2022-07-22T08:26:19;3.37;;;3.37;;
10540;SDS011;5318;50.844;4.272;2022-07-22T08:28:55;3.27;;;3.27;;
10540;SDS011;5318;50.844;4.272;2022-07-22T08:31:32;3.40;;;3.40;;
10540;SDS011;5318;50.844;4.272;2022-07-22T08:34:08;3.40;;;3.40;;
10540;SDS011;5318;50.844;4.272;2022-07-22T08:36:45;3.37;;;3.37;;
10540;SDS011;5318;50.844;4.272;2022-07-22T08:39:21;3.95;;;3.95;;
10540;SDS011;5318;50.844;4.272;2022-07-22T08:41:58;3.97;;;3.97;;
10540;SDS011;5318;50.844;4.272;2022-07-22T08:44:35;3.10;;;3.10;;
10540;SDS011;5318;50.844;4.272;2022-07-22T08:47:11;3.70;;;3.70;;
10540;SDS011;5318;50.844;4.272;2022-07-22T08:49:48;3.20;;;3.20;;
10540;SDS011;5318;50.844;4.272;2022-07-22T08:52:24;3.10;;;3.10;;
10540;SDS011;5318;50.844;4.272;2022-07-22T08:55:04;4.00;;;4.00;;
10540;SDS011;5318;50.844;4.272;2022-07-22T08:57:45;3.50;;;3.50;;
10540;SDS011;5318;50.844;4.272;2022-07-22T09:00:21;3.77;;;3.77;;
10540;SDS011;5318;50.844;4.272;2022-07-22T09:02:57;3.53;;;3.53;;
10540;SDS011;5318;50.844;4.272;2022-07-22T09:05:34;4.00;;;4.00;;
10540;SDS011;5318;50.844;4.272;2022-07-22T09:08:11;3.80;;;3.80;;
10540;SDS011;5318;50.844;4.272;2022-07-22T09:10:47;3.07;;;3.07;;
10540;SDS011;5318;50.844;4.272;2022-07-22T09:13:24;4.20;;;4.20;;
10540;SDS011;5318;50.844;4.272;2022-07-22T09:16:01;3.92;;;3.92;;
10540;SDS011;5318;50.844;4.272;2022-07-22T09:18:45;4.00;;;4.00;;
10540;SDS011;5318;50.844;4.272;2022-07-22T09:21:24;3.50;;;3.50;;
10540;SDS011;5318;50.844;4.272;2022-07-22T09:24:00;3.57;;;3.57;;
10540;SDS011;5318;50.844;4.272;2022-07-22T09:26:38;3.67;;;3.67;;
10540;SDS011;5318;50.844;4.272;2022-07-22T09:29:13;3.80;;;3.80;;
10540;SDS011;5318;50.844;4.272;2022-07-22T09:31:52;4.35;;;4.35;;
10540;SDS011;5318;50.844;4.272;2022-07-22T09:34:30;3.83;;;3.83;;
10540;SDS011;5318;50.844;4.272;2022-07-22T09:37:07;3.67;;;3.67;;
10540;SDS011;5318;50.844;4.272;2022-07-22T09:39:43;3.60;;;3.60;;
10540;SDS011;5318;50.844;4.272;2022-07-22T09:42:21;3.87;;;3.87;;
10540;SDS011;5318;50.844;4.272;2022-07-22T09:44:57;3.60;;;3.60;;
10540;SDS011;5318;50.844;4.272;2022-07-22T09:47:34;3.60;;;3.60;;
10540;SDS011;5318;50.844;4.272;2022-07-22T09:50:15;3.50;;;3.50;;
10540;SDS011;5318;50.844;4.272;2022-07-22T09:52:54;3.83;;;3.83;;
10540;SDS011;5318;50.844;4.272;2022-07-22T09:55:30;3.53;;;3.53;;
10540;SDS011;5318;50.844;4.272;2022-07-22T09:58:07;4.00;;;4.00;;
10540;SDS011;5318;50.844;4.272;2022-07-22T10:00:43;3.90;;;3.90;;
10540;SDS011;5318;50.844;4.272;2022-07-22T10:03:26;3.72;;;3.72;;
10540;SDS011;5318;50.844;4.272;2022-07-22T10:06:03;3.60;;;3.60;;
10540;SDS011;5318;50.844;4.272;2022-07-22T10:08:39;3.37;;;3.37;;
10540;SDS011;5318;50.844;4.272;2022-07-22T10:11:16;4.10;;;4.10;;
10540;SDS011;5318;50.844;4.272;2022-07-22T10:13:52;3.63;;;3.63;;
10540;SDS011;5318;50.844;4.272;2022-07-22T10:16:29;3.67;;;3.67;;
10540;SDS011;5318;50.844;4.272;2022-07-22T10:19:06;3.43;;;3.43;;
10540;SDS011;5318;50.844;4.272;2022-07-22T10:21:42;3.27;;;3.27;;
10540;SDS011;5318;50.844;4.272;2022-07-22T10:24:19;3.45;;;3.45;;
10540;SDS011;5318;50.844;4.272;2022-07-22T10:26:57;3.85;;;3.85;;
10540;SDS011;5318;50.844;4.272;2022-07-22T10:29:40;3.80;;;3.80;;
10540;SDS011;5318;50.844;4.272;2022-07-22T10:40:12;3.50;;;3.50;;
10540;SDS011;5318;50.844;4.272;2022-07-22T10:45:41;3.30;;;3.30;;
10540;SDS011;5318;50.844;4.272;2022-07-22T10:48:18;3.60;;;3.60;;
10540;SDS011;5318;50.844;4.272;2022-07-22T10:50:55;4.23;;;4.23;;
10540;SDS011;5318;50.844;4.272;2022-07-22T10:56:37;3.60;;;3.60;;
10540;SDS011;5318;50.844;4.272;2022-07-22T10:59:15;3.62;;;3.62;;
10540;SDS011;5318;50.844;4.272;2022-07-22T11:01:51;3.40;;;3.40;;
10540;SDS011;5318;50.844;4.272;2022-07-22T11:04:27;3.20;;;3.20;;
10540;SDS011;5318;50.844;4.272;2022-07-22T11:07:04;3.97;;;3.97;;
10540;SDS011;5318;50.844;4.272;2022-07-22T11:09:41;3.50;;;3.50;;
10540;SDS011;5318;50.844;4.272;2022-07-22T11:12:18;3.87;;;3.87;;
10540;SDS011;5318;50.844;4.272;2022-07-22T11:14:54;3.30;;;3.30;;
10540;SDS011;5318;50.844;4.272;2022-07-22T11:17:31;3.70;;;3.70;;
10540;SDS011;5318;50.844;4.272;2022-07-22T11:20:08;4.03;;;4.03;;
10540;SDS011;5318;50.844;4.272;2022-07-22T11:22:45;3.57;;;3.57;;
10540;SDS011;5318;50.844;4.272;2022-07-22T11:25:21;3.57;;;3.57;;
10540;SDS011;5318;50.844;4.272;2022-07-22T11:27:57;3.93;;;3.93;;
10540;SDS011;5318;50.844;4.272;2022-07-22T11:30:34;3.57;;;3.57;;
10540;SDS011;5318;50.844;4.272;2022-07-22T11:33:10;4.03;;;4.03;;
10540;SDS011;5318;50.844;4.272;2022-07-22T11:36:09;3.83;;;3.83;;
10540;SDS011;5318;50.844;4.272;2022-07-22T11:38:39;4.10;;;4.10;;
10540;SDS011;5318;50.844;4.272;2022-07-22T11:41:18;4.40;;;4.40;;
10540;SDS011;5318;50.844;4.272;2022-07-22T11:43:54;3.87;;;3.87;;
10540;SDS011;5318;50.844;4.272;2022-07-22T11:46:37;3.57;;;3.57;;
10540;SDS011;5318;50.844;4.272;2022-07-22T11:49:14;4.47;;;4.47;;
10540;SDS011;5318;50.844;4.272;2022-07-22T11:51:56;4.13;;;4.13;;
10540;SDS011;5318;50.844;4.272;2022-07-22T11:54:32;3.53;;;3.53;;
10540;SDS011;5318;50.844;4.272;2022-07-22T11:57:09;4.33;;;4.33;;
10540;SDS011;5318;50.844;4.272;2022-07-22T11:59:45;4.10;;;4.10;;
10540;SDS011;5318;50.844;4.272;2022-07-22T12:02:22;4.40;;;4.40;;
10540;SDS011;5318;50.844;4.272;2022-07-22T12:04:59;4.10;;;4.10;;
10540;SDS011;5318;50.844;4.272;2022-07-22T12:07:35;4.05;;;4.05;;
10540;SDS011;5318;50.844;4.272;2022-07-22T12:10:12;4.27;;;4.27;;
10540;SDS011;5318;50.844;4.272;2022-07-22T12:12:48;3.90;;;3.90;;
10540;SDS011;5318;50.844;4.272;2022-07-22T12:15:26;3.97;;;3.97;;
10540;SDS011;5318;50.844;4.272;2022-07-22T12:18:15;4.00;;;4.00;;
10540;SDS011;5318;50.844;4.272;2022-07-22T12:20:54;4.20;;;4.20;;
10540;SDS011;5318;50.844;4.272;2022-07-22T12:23:30;3.97;;;3.97;;
10540;SDS011;5318;50.844;4.272;2022-07-22T12:26:07;4.00;;;4.00;;
10540;SDS011;5318;50.844;4.272;2022-07-22T12:28:44;3.97;;;3.97;;
10540;SDS011;5318;50.844;4.272;2022-07-22T12:31:22;4.23;;;4.23;;
10540;SDS011;5318;50.844;4.272;2022-07-22T12:33:59;4.23;;;4.23;;
10540;SDS011;5318;50.844;4.272;2022-07-22T12:36:38;4.00;;;4.00;;
10540;SDS011;5318;50.844;4.272;2022-07-22T12:39:18;4.40;;;4.40;;
10540;SDS011;5318;50.844;4.272;2022-07-22T12:41:52;4.10;;;4.10;;
10540;SDS011;5318;50.844;4.272;2022-07-22T12:44:28;4.12;;;4.12;;
10540;SDS011;5318;50.844;4.272;2022-07-22T12:47:04;4.07;;;4.07;;
10540;SDS011;5318;50.844;4.272;2022-07-22T12:49:41;4.12;;;4.12;;
10540;SDS011;5318;50.844;4.272;2022-07-22T12:52:17;3.83;;;3.83;;
10540;SDS011;5318;50.844;4.272;2022-07-22T12:54:55;3.87;;;3.87;;
10540;SDS011;5318;50.844;4.272;2022-07-22T12:57:33;4.37;;;4.37;;
10540;SDS011;5318;50.844;4.272;2022-07-22T13:00:22;3.93;;;3.93;;
10540;SDS011;5318;50.844;4.272;2022-07-22T13:02:51;4.50;;;4.50;;
10540;SDS011;5318;50.844;4.272;2022-07-22T13:05:29;4.33;;;4.33;;
10540;SDS011;5318;50.844;4.272;2022-07-22T13:08:06;4.43;;;4.43;;
10540;SDS011;5318;50.844;4.272;2022-07-22T13:10:43;4.50;;;4.50;;
10540;SDS011;5318;50.844;4.272;2022-07-22T13:13:21;4.57;;;4.57;;
10540;SDS011;5318;50.844;4.272;2022-07-22T13:15:57;5.00;;;5.00;;
10540;SDS011;5318;50.844;4.272;2022-07-22T13:18:34;4.40;;;4.40;;
10540;SDS011;5318;50.844;4.272;2022-07-22T13:21:10;4.07;;;4.07;;
10540;SDS011;5318;50.844;4.272;2022-07-22T13:23:47;4.70;;;4.70;;
10540;SDS011;5318;50.844;4.272;2022-07-22T13:26:24;4.60;;;4.60;;
10540;SDS011;5318;50.844;4.272;2022-07-22T13:29:00;4.40;;;4.40;;
10540;SDS011;5318;50.844;4.272;2022-07-22T13:31:37;4.10;;;4.10;;
10540;SDS011;5318;50.844;4.272;2022-07-22T13:34:13;3.97;;;3.97;;
10540;SDS011;5318;50.844;4.272;2022-07-22T13:36:50;4.37;;;4.37;;
10540;SDS011;5318;50.844;4.272;2022-07-22T13:39:26;4.07;;;4.07;;
10540;SDS011;5318;50.844;4.272;2022-07-22T13:42:03;4.20;;;4.20;;
10540;SDS011;5318;50.844;4.272;2022-07-22T13:44:40;3.80;;;3.80;;
10540;SDS011;5318;50.844;4.272;2022-07-22T13:47:16;4.37;;;4.37;;
10540;SDS011;5318;50.844;4.272;2022-07-22T13:49:53;4.03;;;4.03;;
10540;SDS011;5318;50.844;4.272;2022-07-22T13:52:29;3.77;;;3.77;;
10540;SDS011;5318;50.844;4.272;2022-07-22T13:55:07;4.17;;;4.17;;
10540;SDS011;5318;50.844;4.272;2022-07-22T13:57:43;4.03;;;4.03;;
10540;SDS011;5318;50.844;4.272;2022-07-22T14:00:20;4.17;;;4.17;;
10540;SDS011;5318;50.844;4.272;2022-07-22T14:02:57;4.13;;;4.13;;
10540;SDS011;5318;50.844;4.272;2022-07-22T14:05:34;4.20;;;4.20;;
10540;SDS011;5318;50.844;4.272;2022-07-22T14:08:12;4.50;;;4.50;;
10540;SDS011;5318;50.844;4.272;2022-07-22T14:10:49;4.93;;;4.93;;
10540;SDS011;5318;50.844;4.272;2022-07-22T14:13:25;4.50;;;4.50;;
10540;SDS011;5318;50.844;4.272;2022-07-22T14:16:02;3.87;;;3.87;;
10540;SDS011;5318;50.844;4.272;2022-07-22T14:18:38;4.40;;;4.40;;
10540;SDS011;5318;50.844;4.272;2022-07-22T14:21:15;4.23;;;4.23;;
10540;SDS011;5318;50.844;4.272;2022-07-22T14:23:52;4.90;;;4.90;;
10540;SDS011;5318;50.844;4.272;2022-07-22T14:29:23;5.95;;;5.95;;
10540;SDS011;5318;50.844;4.272;2022-07-22T14:31:50;5.00;;;5.00;;
10540;SDS011;5318;50.844;4.272;2022-07-22T14:34:16;5.13;;;5.13;;
10540;SDS011;5318;50.844;4.272;2022-07-22T14:36:43;5.00;;;5.00;;
10540;SDS011;5318;50.844;4.272;2022-07-22T14:39:10;4.53;;;4.53;;
10540;SDS011;5318;50.844;4.272;2022-07-22T14:41:36;4.73;;;4.73;;
10540;SDS011;5318;50.844;4.272;2022-07-22T14:44:03;5.67;;;5.57;;
10540;SDS011;5318;50.844;4.272;2022-07-22T14:46:30;4.87;;;4.87;;
10540;SDS011;5318;50.844;4.272;2022-07-22T14:48:56;4.80;;;4.80;;
10540;SDS011;5318;50.844;4.272;2022-07-22T14:51:23;4.90;;;4.90;;
10540;SDS011;5318;50.844;4.272;2022-07-22T14:53:50;5.10;;;5.10;;
10540;SDS011;5318;50.844;4.272;2022-07-22T14:56:17;4.60;;;4.60;;
10540;SDS011;5318;50.844;4.272;2022-07-22T14:58:43;4.97;;;4.97;;
10540;SDS011;5318;50.844;4.272;2022-07-22T15:01:10;5.20;;;5.20;;
10540;SDS011;5318;50.844;4.272;2022-07-22T15:03:36;5.03;;;5.03;;
10540;SDS011;5318;50.844;4.272;2022-07-22T15:06:03;4.43;;;4.43;;
10540;SDS011;5318;50.844;4.272;2022-07-22T15:08:29;4.63;;;4.63;;
10540;SDS011;5318;50.844;4.272;2022-07-22T15:10:56;4.63;;;4.63;;
10540;SDS011;5318;50.844;4.272;2022-07-22T15:13:22;4.90;;;4.90;;
10540;SDS011;5318;50.844;4.272;2022-07-22T15:15:49;5.30;;;5.30;;
10540;SDS011;5318;50.844;4.272;2022-07-22T15:18:15;4.80;;;4.80;;
10540;SDS011;5318;50.844;4.272;2022-07-22T15:20:42;4.90;;;4.90;;
10540;SDS011;5318;50.844;4.272;2022-07-22T15:23:09;4.53;;;4.53;;
10540;SDS011;5318;50.844;4.272;2022-07-22T15:25:36;5.40;;;5.40;;
10540;SDS011;5318;50.844;4.272;2022-07-22T15:28:02;5.00;;;5.00;;
10540;SDS011;5318;50.844;4.272;2022-07-22T15:30:29;5.50;;;5.50;;
10540;SDS011;5318;50.844;4.272;2022-07-22T15:32:55;5.43;;;5.43;;
10540;SDS011;5318;50.844;4.272;2022-07-22T15:35:22;5.77;;;5.77;;
10540;SDS011;5318;50.844;4.272;2022-07-22T15:37:48;5.30;;;5.30;;
10540;SDS011;5318;50.844;4.272;2022-07-22T15:40:16;5.40;;;5.40;;
10540;SDS011;5318;50.844;4.272;2022-07-22T15:42:43;5.20;;;5.20;;
10540;SDS011;5318;50.844;4.272;2022-07-22T15:45:09;5.10;;;5.10;;
10540;SDS011;5318;50.844;4.272;2022-07-22T15:47:36;5.30;;;5.30;;
10540;SDS011;5318;50.844;4.272;2022-07-22T15:50:03;5.80;;;5.80;;
10540;SDS011;5318;50.844;4.272;2022-07-22T15:52:29;5.87;;;5.87;;
10540;SDS011;5318;50.844;4.272;2022-07-22T15:54:56;4.93;;;4.93;;
10540;SDS011;5318;50.844;4.272;2022-07-22T15:57:22;5.33;;;5.33;;
10540;SDS011;5318;50.844;4.272;2022-07-22T15:59:49;5.63;;;5.63;;
10540;SDS011;5318;50.844;4.272;2022-07-22T16:02:15;6.30;;;6.30;;
10540;SDS011;5318;50.844;4.272;2022-07-22T16:04:42;5.40;;;5.40;;
10540;SDS011;5318;50.844;4.272;2022-07-22T16:07:09;6.13;;;6.13;;
10540;SDS011;5318;50.844;4.272;2022-07-22T16:09:36;5.37;;;5.37;;